sensor_id;sensor_type;location;lat;lon;timestamp;pressure;altitude;pressure_sealevel;temperature;humidity
27429;BME280;14881;48.092;11.574;2022-10-18T00:01:39;96411.53;;;9.63;100.00
27429;BME280;14881;48.092;11.574;2022-10-18T00:04:07;96416.66;;;9.59;100.00
27429;BME280;14881;48.092;11.574;2022-10-18T00:06:35;96422.53;;;9.46;100.00
27429;BME280;14881;48.092;11.574;2022-10-18T00:09:08;96424.38;;;9.40;100.00
27429;BME280;14881;48.092;11.574;2022-10-18T00:11:36;96421.22;;;9.54;100.00
27429;BME280;14881;48.092;11.574;2022-10-18T00:14:05;96422.03;;;9.49;100.00
27429;BME280;14881;48.092;11.574;2022-10-18T00:16:33;96422.75;;;9.39;100.00
27429;BME280;14881;48.092;11.574;2022-10-18T00:19:00;96427.91;;;9.41;100.00
27429;BME280;14881;48.092;11.574;2022-10-18T00:21:29;96429.16;;;9.28;100.00
27429;BME280;14881;48.092;11.574;2022-10-18T00:23:56;96425.44;;;9.34;100.00
27429;BME280;14881;48.092;11.574;2022-10-18T00:26:26;96419.72;;;9.36;100.00
27429;BME280;14881;48.092;11.574;2022-10-18T00:28:55;96425.34;;;9.24;100.00
27429;BME280;14881;48.092;11.574;2022-10-18T00:31:27;96424.69;;;9.12;100.00
27429;BME280;14881;48.092;11.574;2022-10-18T00:33:58;96431.50;;;9.15;100.00
27429;BME280;14881;48.092;11.574;2022-10-18T00:36:28;96423.38;;;9.20;100.00
27429;BME280;14881;48.092;11.574;2022-10-18T00:38:56;96423.94;;;9.22;100.00
27429;BME280;14881;48.092;11.574;2022-10-18T00:41:25;96416.06;;;9.20;100.00
27429;BME280;14881;48.092;11.574;2022-10-18T00:43:55;96415.75;;;9.12;100.00
27429;BME280;14881;48.092;11.574;2022-10-18T00:46:27;96417.31;;;9.07;100.00
27429;BME280;14881;48.092;11.574;2022-10-18T00:48:56;96414.53;;;8.97;100.00
27429;BME280;14881;48.092;11.574;2022-10-18T00:51:27;96420.09;;;8.86;100.00
27429;BME280;14881;48.092;11.574;2022-10-18T00:53:56;96424.34;;;8.77;100.00
27429;BME280;14881;48.092;11.574;2022-10-18T00:56:24;96422.78;;;8.81;100.00
27429;BME280;14881;48.092;11.574;2022-10-18T00:58:52;96424.66;;;8.80;100.00
27429;BME280;14881;48.092;11.574;2022-10-18T01:01:20;96418.06;;;8.71;100.00
27429;BME280;14881;48.092;11.574;2022-10-18T01:03:55;96424.78;;;8.68;100.00
27429;BME280;14881;48.092;11.574;2022-10-18T01:06:24;96428.03;;;8.65;100.00
27429;BME280;14881;48.092;11.574;2022-10-18T01:09:12;96412.78;;;8.59;100.00
27429;BME280;14881;48.092;11.574;2022-10-18T01:11:57;96400.31;;;8.58;100.00
27429;BME280;14881;48.092;11.574;2022-10-18T01:14:42;96402.38;;;8.51;100.00
27429;BME280;14881;48.092;11.574;2022-10-18T01:17:20;96402.59;;;8.45;100.00
27429;BME280;14881;48.092;11.574;2022-10-18T01:20:27;96407.94;;;8.40;100.00
27429;BME280;14881;48.092;11.574;2022-10-18T01:23:04;96406.81;;;8.35;100.00
27429;BME280;14881;48.092;11.574;2022-10-18T01:25:43;96407.25;;;8.27;100.00
27429;BME280;14881;48.092;11.574;2022-10-18T01:28:28;96406.44;;;8.27;100.00
27429;BME280;14881;48.092;11.574;2022-10-18T01:31:02;96407.25;;;8.27;100.00
27429;BME280;14881;48.092;11.574;2022-10-18T01:33:36;96406.44;;;8.27;100.00
27429;BME280;14881;48.092;11.574;2022-10-18T01:36:08;96401.84;;;8.27;100.00
27429;BME280;14881;48.092;11.574;2022-10-18T01:38:38;96398.25;;;8.22;100.00
27429;BME280;14881;48.092;11.574;2022-10-18T01:41:08;96401.41;;;8.14;100.00
27429;BME280;14881;48.092;11.574;2022-10-18T01:43:42;96398.88;;;8.07;100.00
27429;BME280;14881;48.092;11.574;2022-10-18T01:46:16;96403.38;;;8.01;100.00
27429;BME280;14881;48.092;11.574;2022-10-18T01:48:46;96405.53;;;7.99;100.00
27429;BME280;14881;48.092;11.574;2022-10-18T01:51:17;96414.22;;;8.01;100.00
27429;BME280;14881;48.092;11.574;2022-10-18T01:53:45;96403.06;;;7.98;100.00
27429;BME280;14881;48.092;11.574;2022-10-18T01:56:28;96400.38;;;7.98;100.00
27429;BME280;14881;48.092;11.574;2022-10-18T01:59:08;96407.78;;;7.86;100.00
27429;BME280;14881;48.092;11.574;2022-10-18T02:01:46;96402.28;;;7.81;100.00
27429;BME280;14881;48.092;11.574;2022-10-18T02:04:22;96399.28;;;7.77;100.00
27429;BME280;14881;48.092;11.574;2022-10-18T02:06:57;96396.06;;;7.80;100.00
27429;BME280;14881;48.092;11.574;2022-10-18T02:09:32;96396.34;;;7.79;100.00
27429;BME280;14881;48.092;11.574;2022-10-18T02:12:05;96400.13;;;7.78;100.00
27429;BME280;14881;48.092;11.574;2022-10-18T02:14:34;96407.16;;;7.79;100.00
27429;BME280;14881;48.092;11.574;2022-10-18T02:17:07;96420.78;;;7.67;100.00
27429;BME280;14881;48.092;11.574;2022-10-18T02:19:39;96425.56;;;7.82;100.00
27429;BME280;14881;48.092;11.574;2022-10-18T02:22:09;96412.94;;;7.87;100.00
27429;BME280;14881;48.092;11.574;2022-10-18T02:24:41;96412.13;;;7.87;100.00
27429;BME280;14881;48.092;11.574;2022-10-18T02:27:11;96416.97;;;7.85;100.00
27429;BME280;14881;48.092;11.574;2022-10-18T02:29:39;96413.69;;;7.83;100.00
27429;BME280;14881;48.092;11.574;2022-10-18T02:32:11;96416.88;;;7.80;100.00
27429;BME280;14881;48.092;11.574;2022-10-18T02:34:45;96400.59;;;7.75;100.00
27429;BME280;14881;48.092;11.574;2022-10-18T02:37:16;96403.41;;;7.63;100.00
27429;BME280;14881;48.092;11.574;2022-10-18T02:39:46;96406.28;;;7.56;100.00
27429;BME280;14881;48.092;11.574;2022-10-18T02:42:15;96403.34;;;7.58;100.00
27429;BME280;14881;48.092;11.574;2022-10-18T02:44:43;96415.28;;;7.62;100.00
27429;BME280;14881;48.092;11.574;2022-10-18T02:47:12;96411.69;;;7.56;100.00
27429;BME280;14881;48.092;11.574;2022-10-18T02:49:39;96414.56;;;7.50;100.00
27429;BME280;14881;48.092;11.574;2022-10-18T02:52:07;96412.88;;;7.44;100.00
27429;BME280;14881;48.092;11.574;2022-10-18T02:54:35;96401.47;;;7.42;100.00
27429;BME280;14881;48.092;11.574;2022-10-18T02:57:03;96409.25;;;7.38;100.00
27429;BME280;14881;48.092;11.574;2022-10-18T02:59:30;96419.84;;;7.40;100.00
27429;BME280;14881;48.092;11.574;2022-10-18T03:01:58;96414.75;;;7.43;100.00
27429;BME280;14881;48.092;11.574;2022-10-18T03:04:27;96419.88;;;7.45;100.00
27429;BME280;14881;48.092;11.574;2022-10-18T03:06:55;96415.00;;;7.42;100.00
27429;BME280;14881;48.092;11.574;2022-10-18T03:09:23;96418.44;;;7.37;100.00
27429;BME280;14881;48.092;11.574;2022-10-18T03:11:50;96412.13;;;7.31;100.00
27429;BME280;14881;48.092;11.574;2022-10-18T03:14:18;96412.88;;;7.27;100.00
27429;BME280;14881;48.092;11.574;2022-10-18T03:16:46;96404.94;;;7.20;100.00
27429;BME280;14881;48.092;11.574;2022-10-18T03:19:14;96407.97;;;7.24;100.00
27429;BME280;14881;48.092;11.574;2022-10-18T03:21:43;96411.47;;;7.24;100.00
27429;BME280;14881;48.092;11.574;2022-10-18T03:24:10;96419.06;;;7.27;100.00
27429;BME280;14881;48.092;11.574;2022-10-18T03:26:38;96420.31;;;7.20;100.00
27429;BME280;14881;48.092;11.574;2022-10-18T03:29:06;96417.63;;;7.20;100.00
27429;BME280;14881;48.092;11.574;2022-10-18T03:31:34;96419.84;;;7.23;100.00
27429;BME280;14881;48.092;11.574;2022-10-18T03:34:01;96431.47;;;7.23;100.00
27429;BME280;14881;48.092;11.574;2022-10-18T03:36:29;96437.50;;;7.30;100.00
27429;BME280;14881;48.092;11.574;2022-10-18T03:39:00;96438.56;;;7.29;100.00
27429;BME280;14881;48.092;11.574;2022-10-18T03:41:28;96437.69;;;7.24;100.00
27429;BME280;14881;48.092;11.574;2022-10-18T03:43:55;96430.88;;;7.21;100.00
27429;BME280;14881;48.092;11.574;2022-10-18T03:46:23;96425.56;;;7.26;100.00
27429;BME280;14881;48.092;11.574;2022-10-18T03:48:51;96424.34;;;7.34;100.00
27429;BME280;14881;48.092;11.574;2022-10-18T03:51:18;96424.66;;;7.38;100.00
27429;BME280;14881;48.092;11.574;2022-10-18T03:53:46;96434.16;;;7.40;100.00
27429;BME280;14881;48.092;11.574;2022-10-18T03:56:15;96431.22;;;7.42;100.00
27429;BME280;14881;48.092;11.574;2022-10-18T03:58:43;96418.28;;;7.44;100.00
27429;BME280;14881;48.092;11.574;2022-10-18T04:01:11;96437.44;;;7.42;100.00
27429;BME280;14881;48.092;11.574;2022-10-18T04:03:38;96429.16;;;7.32;100.00
27429;BME280;14881;48.092;11.574;2022-10-18T04:06:06;96434.56;;;7.32;100.00
27429;BME280;14881;48.092;11.574;2022-10-18T04:08:35;96435.47;;;7.38;100.00
27429;BME280;14881;48.092;11.574;2022-10-18T04:11:05;96440.16;;;7.42;100.00
27429;BME280;14881;48.092;11.574;2022-10-18T04:13:36;96439.91;;;7.44;100.00
27429;BME280;14881;48.092;11.574;2022-10-18T04:16:04;96443.91;;;7.41;100.00
27429;BME280;14881;48.092;11.574;2022-10-18T04:18:32;96438.28;;;7.43;100.00
27429;BME280;14881;48.092;11.574;2022-10-18T04:20:59;96442.53;;;7.39;100.00
27429;BME280;14881;48.092;11.574;2022-10-18T04:23:27;96430.88;;;7.38;100.00
27429;BME280;14881;48.092;11.574;2022-10-18T04:26:00;96427.28;;;7.32;100.00
27429;BME280;14881;48.092;11.574;2022-10-18T04:28:28;96430.31;;;7.36;100.00
27429;BME280;14881;48.092;11.574;2022-10-18T04:30:57;96439.25;;;7.37;100.00
27429;BME280;14881;48.092;11.574;2022-10-18T04:33:24;96441.84;;;7.31;100.00
27429;BME280;14881;48.092;11.574;2022-10-18T04:35:52;96439.09;;;7.26;100.00
27429;BME280;14881;48.092;11.574;2022-10-18T04:38:20;96438.75;;;7.23;100.00
27429;BME280;14881;48.092;11.574;2022-10-18T04:40:48;96437.69;;;7.24;100.00
27429;BME280;14881;48.092;11.574;2022-10-18T04:43:16;96438.09;;;7.16;100.00
27429;BME280;14881;48.092;11.574;2022-10-18T04:45:44;96434.81;;;7.14;100.00
27429;BME280;14881;48.092;11.574;2022-10-18T04:48:13;96439.63;;;7.12;100.00
27429;BME280;14881;48.092;11.574;2022-10-18T04:50:41;96436.19;;;7.16;100.00
27429;BME280;14881;48.092;11.574;2022-10-18T04:53:08;96435.03;;;7.12;100.00
27429;BME280;14881;48.092;11.574;2022-10-18T04:55:36;96426.13;;;7.12;100.00
27429;BME280;14881;48.092;11.574;2022-10-18T04:58:04;96425.16;;;7.18;100.00
27429;BME280;14881;48.092;11.574;2022-10-18T05:00:31;96415.81;;;7.25;100.00
27429;BME280;14881;48.092;11.574;2022-10-18T05:03:05;96416.78;;;7.36;100.00
27429;BME280;14881;48.092;11.574;2022-10-18T05:05:34;96418.53;;;7.42;100.00
27429;BME280;14881;48.092;11.574;2022-10-18T05:08:22;96414.75;;;7.43;100.00
27429;BME280;14881;48.092;11.574;2022-10-18T05:10:50;96416.41;;;7.44;100.00
27429;BME280;14881;48.092;11.574;2022-10-18T05:13:17;96429.47;;;7.52;100.00
27429;BME280;14881;48.092;11.574;2022-10-18T05:15:45;96433.31;;;7.73;100.00
27429;BME280;14881;48.092;11.574;2022-10-18T05:18:13;96439.38;;;8.02;100.00
27429;BME280;14881;48.092;11.574;2022-10-18T05:20:42;96428.00;;;8.22;100.00
27429;BME280;14881;48.092;11.574;2022-10-18T05:23:10;96422.50;;;8.33;100.00
27429;BME280;14881;48.092;11.574;2022-10-18T05:25:38;96416.00;;;8.34;100.00
27429;BME280;14881;48.092;11.574;2022-10-18T05:28:06;96405.66;;;8.31;100.00
27429;BME280;14881;48.092;11.574;2022-10-18T05:30:41;96404.69;;;8.37;100.00
27429;BME280;14881;48.092;11.574;2022-10-18T05:33:09;96399.91;;;8.45;100.00
27429;BME280;14881;48.092;11.574;2022-10-18T05:35:36;96398.44;;;8.59;100.00
27429;BME280;14881;48.092;11.574;2022-10-18T05:38:05;96397.75;;;8.73;100.00
27429;BME280;14881;48.092;11.574;2022-10-18T05:40:33;96399.41;;;8.75;100.00
27429;BME280;14881;48.092;11.574;2022-10-18T05:43:01;96390.81;;;8.83;100.00
27429;BME280;14881;48.092;11.574;2022-10-18T05:45:29;96392.19;;;8.85;100.00
27429;BME280;14881;48.092;11.574;2022-10-18T05:47:56;96408.16;;;9.14;100.00
27429;BME280;14881;48.092;11.574;2022-10-18T05:50:24;96406.47;;;9.39;100.00
27429;BME280;14881;48.092;11.574;2022-10-18T05:52:54;96405.53;;;9.61;100.00
27429;BME280;14881;48.092;11.574;2022-10-18T05:55:44;96413.06;;;9.86;100.00
27429;BME280;14881;48.092;11.574;2022-10-18T05:58:12;96407.72;;;10.06;100.00
27429;BME280;14881;48.092;11.574;2022-10-18T06:00:39;96409.19;;;10.24;100.00
27429;BME280;14881;48.092;11.574;2022-10-18T06:03:07;96413.88;;;10.43;100.00
27429;BME280;14881;48.092;11.574;2022-10-18T06:05:35;96404.44;;;10.61;100.00
27429;BME280;14881;48.092;11.574;2022-10-18T06:08:03;96403.41;;;10.72;100.00
27429;BME280;14881;48.092;11.574;2022-10-18T06:10:37;96409.41;;;10.90;100.00
27429;BME280;14881;48.092;11.574;2022-10-18T06:13:06;96410.25;;;11.00;100.00
27429;BME280;14881;48.092;11.574;2022-10-18T06:15:34;96408.88;;;11.13;100.00
27429;BME280;14881;48.092;11.574;2022-10-18T06:18:02;96403.47;;;11.23;100.00
27429;BME280;14881;48.092;11.574;2022-10-18T06:20:30;96399.94;;;11.38;100.00
27429;BME280;14881;48.092;11.574;2022-10-18T06:22:58;96401.00;;;11.52;100.00
27429;BME280;14881;48.092;11.574;2022-10-18T06:25:25;96403.72;;;11.62;100.00
27429;BME280;14881;48.092;11.574;2022-10-18T06:27:53;96399.38;;;11.71;100.00
27429;BME280;14881;48.092;11.574;2022-10-18T06:30:22;96397.72;;;11.75;100.00
27429;BME280;14881;48.092;11.574;2022-10-18T06:32:50;96395.00;;;11.80;100.00
27429;BME280;14881;48.092;11.574;2022-10-18T06:35:18;96393.13;;;11.76;100.00
27429;BME280;14881;48.092;11.574;2022-10-18T06:37:45;96398.59;;;11.76;100.00
27429;BME280;14881;48.092;11.574;2022-10-18T06:40:13;96391.47;;;11.80;100.00
27429;BME280;14881;48.092;11.574;2022-10-18T06:42:41;96398.56;;;11.86;100.00
27429;BME280;14881;48.092;11.574;2022-10-18T06:45:16;96399.38;;;11.92;100.00
27429;BME280;14881;48.092;11.574;2022-10-18T06:47:45;96391.44;;;12.05;100.00
27429;BME280;14881;48.092;11.574;2022-10-18T06:50:13;96410.19;;;12.17;100.00
27429;BME280;14881;48.092;11.574;2022-10-18T06:52:40;96419.16;;;12.28;100.00
27429;BME280;14881;48.092;11.574;2022-10-18T06:55:08;96405.22;;;12.34;100.00
27429;BME280;14881;48.092;11.574;2022-10-18T06:57:36;96417.19;;;12.43;100.00
27429;BME280;14881;48.092;11.574;2022-10-18T07:00:05;96416.84;;;12.55;100.00
27429;BME280;14881;48.092;11.574;2022-10-18T07:02:33;96417.09;;;12.64;100.00
27429;BME280;14881;48.092;11.574;2022-10-18T07:05:02;96417.59;;;12.76;100.00
27429;BME280;14881;48.092;11.574;2022-10-18T07:07:30;96421.34;;;12.85;100.00
27429;BME280;14881;48.092;11.574;2022-10-18T07:09:58;96426.75;;;12.95;100.00
27429;BME280;14881;48.092;11.574;2022-10-18T07:12:26;96420.41;;;13.05;100.00
27429;BME280;14881;48.092;11.574;2022-10-18T07:14:54;96428.56;;;13.10;100.00
27429;BME280;14881;48.092;11.574;2022-10-18T07:17:21;96432.59;;;13.22;100.00
27429;BME280;14881;48.092;11.574;2022-10-18T07:19:49;96429.06;;;13.22;100.00
27429;BME280;14881;48.092;11.574;2022-10-18T07:22:18;96433.41;;;13.28;100.00
27429;BME280;14881;48.092;11.574;2022-10-18T07:24:46;96429.75;;;13.38;100.00
27429;BME280;14881;48.092;11.574;2022-10-18T07:27:14;96426.38;;;13.51;100.00
27429;BME280;14881;48.092;11.574;2022-10-18T07:29:41;96427.09;;;13.67;100.00
27429;BME280;14881;48.092;11.574;2022-10-18T07:32:09;96426.13;;;13.81;100.00
27429;BME280;14881;48.092;11.574;2022-10-18T07:34:37;96413.16;;;13.97;100.00
27429;BME280;14881;48.092;11.574;2022-10-18T07:37:05;96415.44;;;14.14;100.00
27429;BME280;14881;48.092;11.574;2022-10-18T07:39:34;96414.22;;;14.25;100.00
27429;BME280;14881;48.092;11.574;2022-10-18T07:42:02;96423.69;;;14.33;100.00
27429;BME280;14881;48.092;11.574;2022-10-18T07:44:29;96408.84;;;14.39;100.00
27429;BME280;14881;48.092;11.574;2022-10-18T07:46:57;96419.47;;;14.45;100.00
27429;BME280;14881;48.092;11.574;2022-10-18T07:49:25;96414.41;;;14.57;100.00
27429;BME280;14881;48.092;11.574;2022-10-18T07:51:53;96412.44;;;14.63;100.00
27429;BME280;14881;48.092;11.574;2022-10-18T07:54:20;96409.13;;;14.66;100.00
27429;BME280;14881;48.092;11.574;2022-10-18T07:56:50;96412.38;;;14.68;100.00
27429;BME280;14881;48.092;11.574;2022-10-18T07:59:17;96424.28;;;14.77;100.00
27429;BME280;14881;48.092;11.574;2022-10-18T08:01:45;96422.66;;;14.76;100.00
27429;BME280;14881;48.092;11.574;2022-10-18T08:04:13;96426.38;;;14.85;100.00
27429;BME280;14881;48.092;11.574;2022-10-18T08:06:42;96419.88;;;15.00;100.00
27429;BME280;14881;48.092;11.574;2022-10-18T08:09:09;96419.66;;;15.15;100.00
27429;BME280;14881;48.092;11.574;2022-10-18T08:11:37;96425.19;;;15.29;100.00
27429;BME280;14881;48.092;11.574;2022-10-18T08:14:06;96422.69;;;15.32;100.00
27429;BME280;14881;48.092;11.574;2022-10-18T08:16:34;96421.22;;;15.40;100.00
27429;BME280;14881;48.092;11.574;2022-10-18T08:19:02;96429.03;;;15.47;100.00
27429;BME280;14881;48.092;11.574;2022-10-18T08:21:30;96429.41;;;15.59;100.00
27429;BME280;14881;48.092;11.574;2022-10-18T08:23:58;96431.00;;;15.79;100.00
27429;BME280;14881;48.092;11.574;2022-10-18T08:26:25;96422.34;;;16.04;100.00
27429;BME280;14881;48.092;11.574;2022-10-18T08:28:53;96412.72;;;16.20;100.00
27429;BME280;14881;48.092;11.574;2022-10-18T08:31:42;96426.47;;;16.34;100.00
27429;BME280;14881;48.092;11.574;2022-10-18T08:34:10;96418.66;;;16.27;100.00
27429;BME280;14881;48.092;11.574;2022-10-18T08:36:44;96427.69;;;16.42;100.00
27429;BME280;14881;48.092;11.574;2022-10-18T08:39:12;96424.03;;;16.60;100.00
27429;BME280;14881;48.092;11.574;2022-10-18T08:42:06;96424.03;;;16.87;100.00
27429;BME280;14881;48.092;11.574;2022-10-18T08:44:41;96416.75;;;17.19;100.00
27429;BME280;14881;48.092;11.574;2022-10-18T08:47:14;96412.69;;;17.52;100.00
27429;BME280;14881;48.092;11.574;2022-10-18T08:49:47;96415.78;;;17.73;100.00
27429;BME280;14881;48.092;11.574;2022-10-18T08:52:24;96411.34;;;17.86;100.00
27429;BME280;14881;48.092;11.574;2022-10-18T08:54:59;96409.19;;;18.05;100.00
27429;BME280;14881;48.092;11.574;2022-10-18T08:57:29;96407.16;;;18.19;100.00
27429;BME280;14881;48.092;11.574;2022-10-18T08:59:58;96404.53;;;18.45;100.00
27429;BME280;14881;48.092;11.574;2022-10-18T09:02:40;96405.00;;;18.69;100.00
27429;BME280;14881;48.092;11.574;2022-10-18T09:05:18;96399.53;;;18.95;100.00
27429;BME280;14881;48.092;11.574;2022-10-18T09:08:01;96399.59;;;19.21;100.00
27429;BME280;14881;48.092;11.574;2022-10-18T09:10:42;96401.38;;;19.43;100.00
27429;BME280;14881;48.092;11.574;2022-10-18T09:13:23;96391.16;;;19.78;100.00
27429;BME280;14881;48.092;11.574;2022-10-18T09:15:56;96397.63;;;19.99;100.00
27429;BME280;14881;48.092;11.574;2022-10-18T09:18:36;96387.16;;;20.31;100.00
27429;BME280;14881;48.092;11.574;2022-10-18T09:21:16;96395.88;;;20.50;100.00
27429;BME280;14881;48.092;11.574;2022-10-18T09:23:47;96395.53;;;20.60;100.00
27429;BME280;14881;48.092;11.574;2022-10-18T09:26:19;96402.13;;;20.68;100.00
27429;BME280;14881;48.092;11.574;2022-10-18T09:28:59;96393.94;;;20.80;100.00
27429;BME280;14881;48.092;11.574;2022-10-18T09:31:40;96393.94;;;21.09;100.00
27429;BME280;14881;48.092;11.574;2022-10-18T09:34:17;96394.78;;;21.51;100.00
27429;BME280;14881;48.092;11.574;2022-10-18T09:36:50;96395.09;;;21.92;100.00
27429;BME280;14881;48.092;11.574;2022-10-18T09:39:22;96387.06;;;22.44;100.00
27429;BME280;14881;48.092;11.574;2022-10-18T09:41:53;96397.88;;;22.94;100.00
27429;BME280;14881;48.092;11.574;2022-10-18T09:44:25;96385.88;;;23.42;100.00
27429;BME280;14881;48.092;11.574;2022-10-18T09:46:56;96388.25;;;23.16;100.00
27429;BME280;14881;48.092;11.574;2022-10-18T09:49:30;96401.00;;;22.35;100.00
27429;BME280;14881;48.092;11.574;2022-10-18T09:52:02;96399.38;;;22.22;100.00
27429;BME280;14881;48.092;11.574;2022-10-18T09:54:34;96400.19;;;22.22;100.00
27429;BME280;14881;48.092;11.574;2022-10-18T09:57:07;96392.00;;;22.26;100.00
27429;BME280;14881;48.092;11.574;2022-10-18T09:59:39;96393.41;;;22.44;100.00
27429;BME280;14881;48.092;11.574;2022-10-18T10:02:11;96393.09;;;22.58;100.00
27429;BME280;14881;48.092;11.574;2022-10-18T10:04:41;96390.41;;;22.37;100.00
27429;BME280;14881;48.092;11.574;2022-10-18T10:07:12;96393.22;;;22.62;100.00
27429;BME280;14881;48.092;11.574;2022-10-18T10:09:43;96391.72;;;22.64;100.00
27429;BME280;14881;48.092;11.574;2022-10-18T10:12:27;96398.69;;;22.25;100.00
27429;BME280;14881;48.092;11.574;2022-10-18T10:15:07;96396.03;;;22.16;100.00
27429;BME280;14881;48.092;11.574;2022-10-18T10:17:36;96389.97;;;22.02;100.00
27429;BME280;14881;48.092;11.574;2022-10-18T10:20:17;96379.81;;;21.52;100.00
27429;BME280;14881;48.092;11.574;2022-10-18T10:22:46;96388.19;;;21.44;100.00
27429;BME280;14881;48.092;11.574;2022-10-18T10:25:23;96381.03;;;21.22;100.00
27429;BME280;14881;48.092;11.574;2022-10-18T10:27:52;96384.94;;;21.21;100.00
27429;BME280;14881;48.092;11.574;2022-10-18T10:30:23;96379.00;;;21.10;100.00
27429;BME280;14881;48.092;11.574;2022-10-18T10:32:52;96375.41;;;21.10;100.00
27429;BME280;14881;48.092;11.574;2022-10-18T10:35:26;96368.41;;;21.33;100.00
27429;BME280;14881;48.092;11.574;2022-10-18T10:38:22;96379.09;;;21.97;100.00
27429;BME280;14881;48.092;11.574;2022-10-18T10:40:50;96372.81;;;22.78;100.00
27429;BME280;14881;48.092;11.574;2022-10-18T10:43:21;96364.22;;;23.20;100.00
27429;BME280;14881;48.092;11.574;2022-10-18T10:46:06;96364.16;;;23.84;100.00
27429;BME280;14881;48.092;11.574;2022-10-18T10:48:41;96356.56;;;24.25;100.00
27429;BME280;14881;48.092;11.574;2022-10-18T10:51:15;96361.97;;;24.49;100.00
27429;BME280;14881;48.092;11.574;2022-10-18T10:53:47;96366.63;;;24.02;100.00
27429;BME280;14881;48.092;11.574;2022-10-18T10:56:21;96355.06;;;24.00;100.00
27429;BME280;14881;48.092;11.574;2022-10-18T10:58:51;96352.09;;;23.65;100.00
27429;BME280;14881;48.092;11.574;2022-10-18T11:01:26;96351.59;;;23.75;100.00
27429;BME280;14881;48.092;11.574;2022-10-18T11:03:57;96347.44;;;23.97;100.00
27429;BME280;14881;48.092;11.574;2022-10-18T11:06:43;96344.16;;;24.07;100.00
27429;BME280;14881;48.092;11.574;2022-10-18T11:09:21;96335.16;;;24.57;100.00
27429;BME280;14881;48.092;11.574;2022-10-18T11:11:58;96329.66;;;24.92;100.00
27429;BME280;14881;48.092;11.574;2022-10-18T11:14:29;96325.72;;;24.61;100.00
27429;BME280;14881;48.092;11.574;2022-10-18T11:17:06;96332.97;;;24.82;100.00
27429;BME280;14881;48.092;11.574;2022-10-18T11:19:44;96325.72;;;24.61;100.00
27429;BME280;14881;48.092;11.574;2022-10-18T11:22:20;96332.53;;;24.64;100.00
27429;BME280;14881;48.092;11.574;2022-10-18T11:24:50;96315.28;;;24.23;100.00
27429;BME280;14881;48.092;11.574;2022-10-18T11:27:23;96314.03;;;24.09;100.00
27429;BME280;14881;48.092;11.574;2022-10-18T11:30:09;96312.28;;;24.48;100.00
27429;BME280;14881;48.092;11.574;2022-10-18T11:32:46;96314.75;;;25.00;99.89
27429;BME280;14881;48.092;11.574;2022-10-18T11:35:26;96315.69;;;25.23;100.00
27429;BME280;14881;48.092;11.574;2022-10-18T11:38:16;96312.41;;;25.37;97.50
27429;BME280;14881;48.092;11.574;2022-10-18T11:40:57;96308.22;;;25.47;97.22
27429;BME280;14881;48.092;11.574;2022-10-18T11:43:33;96308.91;;;25.59;95.48
27429;BME280;14881;48.092;11.574;2022-10-18T11:49:25;96303.03;;;25.26;100.00
27429;BME280;14881;48.092;11.574;2022-10-18T11:52:05;96304.94;;;25.41;98.42
27429;BME280;14881;48.092;11.574;2022-10-18T11:54:59;96306.19;;;25.44;96.25
27429;BME280;14881;48.092;11.574;2022-10-18T11:57:42;96297.47;;;25.84;96.16
27429;BME280;14881;48.092;11.574;2022-10-18T12:00:26;96296.75;;;25.13;96.22
27429;BME280;14881;48.092;11.574;2022-10-18T12:03:06;96298.66;;;25.44;95.77
27429;BME280;14881;48.092;11.574;2022-10-18T12:05:43;96290.88;;;25.73;92.97
27429;BME280;14881;48.092;11.574;2022-10-18T12:08:14;96288.31;;;25.45;95.90
27429;BME280;14881;48.092;11.574;2022-10-18T12:10:47;96286.25;;;25.80;95.33
27429;BME280;14881;48.092;11.574;2022-10-18T12:13:35;96284.34;;;25.84;92.12
27429;BME280;14881;48.092;11.574;2022-10-18T12:16:07;96283.63;;;25.68;94.33
27429;BME280;14881;48.092;11.574;2022-10-18T12:18:44;96291.97;;;25.49;93.32
27429;BME280;14881;48.092;11.574;2022-10-18T12:21:14;96283.69;;;25.72;95.13
27429;BME280;14881;48.092;11.574;2022-10-18T12:23:52;96279.66;;;25.88;95.01
27429;BME280;14881;48.092;11.574;2022-10-18T12:26:24;96268.31;;;26.00;90.59
27429;BME280;14881;48.092;11.574;2022-10-18T12:29:03;96279.72;;;25.92;89.38
27429;BME280;14881;48.092;11.574;2022-10-18T12:31:37;96270.84;;;25.86;92.69
27429;BME280;14881;48.092;11.574;2022-10-18T12:34:17;96270.00;;;25.63;95.88
27429;BME280;14881;48.092;11.574;2022-10-18T12:37:09;96266.91;;;25.49;94.67
27429;BME280;14881;48.092;11.574;2022-10-18T12:39:44;96267.13;;;25.21;94.77
27429;BME280;14881;48.092;11.574;2022-10-18T12:42:40;96261.66;;;25.24;95.26
27429;BME280;14881;48.092;11.574;2022-10-18T12:45:22;96258.72;;;25.37;97.21
27429;BME280;14881;48.092;11.574;2022-10-18T12:47:50;96260.09;;;25.08;97.78
27429;BME280;14881;48.092;11.574;2022-10-18T12:50:27;96262.50;;;24.74;100.00
27429;BME280;14881;48.092;11.574;2022-10-18T12:53:05;96253.31;;;24.54;100.00
27429;BME280;14881;48.092;11.574;2022-10-18T12:55:37;96237.19;;;24.28;100.00
27429;BME280;14881;48.092;11.574;2022-10-18T12:58:25;96248.66;;;24.58;100.00
27429;BME280;14881;48.092;11.574;2022-10-18T13:00:58;96245.66;;;25.02;100.00
27429;BME280;14881;48.092;11.574;2022-10-18T13:03:37;96249.03;;;25.30;96.47
27429;BME280;14881;48.092;11.574;2022-10-18T13:06:05;96248.09;;;25.61;93.68
27429;BME280;14881;48.092;11.574;2022-10-18T13:08:38;96253.38;;;25.66;95.95
27429;BME280;14881;48.092;11.574;2022-10-18T13:11:27;96252.28;;;25.71;92.95
27429;BME280;14881;48.092;11.574;2022-10-18T13:14:18;96243.25;;;25.78;94.79